Time;durP1;ratioP1;P1;durP2;ratioP2;P2;SDS_P1;SDS_P2;PMS_P1;PMS_P2;Temp;Humidity;BMP_temperature;BMP_pressure;BME280_temperature;BME280_humidity;BME280_pressure;Samples;Min_cycle;Max_cycle;Signal;HPM_P1;HPM_P2
2023/08/21 00:02:05;;;;;;;10.40;4.63;;;;;;;;;;5015326;28;20325;-66
2023/08/21 00:04:31;;;;;;;7.83;3.50;;;;;;;;;;5015380;28;20194;-66
2023/08/21 00:06:57;;;;;;;5.17;3.07;;;;;;;;;;5015557;28;20209;-67
2023/08/21 00:09:23;;;;;;;9.43;3.03;;;;;;;;;;5033301;28;20661;-65
2023/08/21 00:11:49;;;;;;;5.37;2.67;;;;;;;;;;5015338;28;20632;-65
2023/08/21 00:14:15;;;;;;;8.83;2.83;;;;;;;;;;5033092;28;20266;-65
2023/08/21 00:16:41;;;;;;;4.70;2.40;;;;;;;;;;5033438;28;20178;-65
2023/08/21 00:19:07;;;;;;;8.57;2.63;;;;;;;;;;5033154;28;20234;-65
2023/08/21 00:21:32;;;;;;;7.03;2.10;;;;;;;;;;5033247;28;20183;-65
2023/08/21 00:23:58;;;;;;;4.60;2.23;;;;;;;;;;5033066;28;20203;-65
2023/08/21 00:26:24;;;;;;;5.40;2.13;;;;;;;;;;5015290;28;20267;-65
2023/08/21 00:28:50;;;;;;;5.97;2.70;;;;;;;;;;5032920;28;20673;-65
2023/08/21 00:31:16;;;;;;;6.60;2.07;;;;;;;;;;5032911;28;20696;-65
2023/08/21 00:33:42;;;;;;;5.57;2.30;;;;;;;;;;5033287;28;20183;-65
2023/08/21 00:36:09;;;;;;;4.00;2.30;;;;;;;;;;5019764;28;20207;-65
2023/08/21 00:38:35;;;;;;;5.17;2.00;;;;;;;;;;5015868;28;20606;-66
2023/08/21 00:41:01;;;;;;;4.90;1.93;;;;;;;;;;5034404;28;20259;-64
2023/08/21 00:43:27;;;;;;;6.17;2.17;;;;;;;;;;5021685;28;20357;-65
2023/08/21 00:45:53;;;;;;;4.70;2.03;;;;;;;;;;5032596;28;20213;-65
2023/08/21 00:48:19;;;;;;;6.70;2.00;;;;;;;;;;5014948;28;20211;-65
2023/08/21 00:50:45;;;;;;;6.45;2.42;;;;;;;;;;5013853;28;20383;-65
2023/08/21 00:53:11;;;;;;;4.75;2.25;;;;;;;;;;5031649;28;20384;-65
2023/08/21 00:55:37;;;;;;;8.27;2.50;;;;;;;;;;5031735;28;20402;-65
2023/08/21 00:58:04;;;;;;;5.45;2.20;;;;;;;;;;5031239;28;20379;-65
2023/08/21 01:00:30;;;;;;;9.05;2.50;;;;;;;;;;5031626;28;20379;-65
2023/08/21 01:02:56;;;;;;;10.13;2.93;;;;;;;;;;5014716;28;20256;-65
2023/08/21 01:05:23;;;;;;;6.53;2.40;;;;;;;;;;5032893;28;20250;-65
2023/08/21 01:07:57;;;;;;;4.07;2.20;;;;;;;;;;5014627;28;20199;-65
2023/08/21 01:10:46;;;;;;;5.47;1.87;;;;;;;;;;5014827;28;20179;-65
2023/08/21 01:13:18;;;;;;;4.53;1.90;;;;;;;;;;5022023;28;20284;-65
2023/08/21 01:15:44;;;;;;;5.73;2.40;;;;;;;;;;5014659;28;20175;-65
2023/08/21 01:18:10;;;;;;;6.03;2.47;;;;;;;;;;5015496;28;20242;-65
2023/08/21 01:20:37;;;;;;;5.73;2.27;;;;;;;;;;5033306;28;20187;-65
2023/08/21 01:23:07;;;;;;;5.67;2.10;;;;;;;;;;5033611;28;20305;-65
2023/08/21 01:25:33;;;;;;;4.80;2.27;;;;;;;;;;5032905;28;20214;-65
2023/08/21 01:27:59;;;;;;;5.43;2.57;;;;;;;;;;5032494;28;20195;-65
2023/08/21 01:30:26;;;;;;;6.07;2.23;;;;;;;;;;5034689;28;20175;-65
2023/08/21 01:33:00;;;;;;;7.60;2.20;;;;;;;;;;5035830;28;20641;-65
2023/08/21 01:35:28;;;;;;;6.23;2.37;;;;;;;;;;5018363;28;20183;-65
2023/08/21 01:37:54;;;;;;;5.70;2.30;;;;;;;;;;5018001;28;20245;-65
2023/08/21 01:40:23;;;;;;;5.67;2.53;;;;;;;;;;5035788;28;20190;-65
2023/08/21 01:42:49;;;;;;;5.50;2.40;;;;;;;;;;5036157;28;20730;-65
2023/08/21 01:45:16;;;;;;;6.53;2.17;;;;;;;;;;5035910;28;20180;-65
2023/08/21 01:47:42;;;;;;;7.30;2.30;;;;;;;;;;5035795;28;20219;-64
2023/08/21 01:50:08;;;;;;;8.53;2.70;;;;;;;;;;5035961;28;20562;-65
2023/08/21 01:52:34;;;;;;;6.87;2.33;;;;;;;;;;5035760;28;20685;-65
2023/08/21 01:55:00;;;;;;;5.50;2.17;;;;;;;;;;5035971;28;20203;-65
2023/08/21 01:57:26;;;;;;;6.63;2.40;;;;;;;;;;5036117;28;20183;-65
2023/08/21 01:59:52;;;;;;;4.17;2.17;;;;;;;;;;5035307;28;20278;-65
2023/08/21 02:02:18;;;;;;;6.03;2.43;;;;;;;;;;5035338;28;20190;-65
2023/08/21 02:04:44;;;;;;;9.47;2.53;;;;;;;;;;5035537;28;20176;-65
2023/08/21 02:07:10;;;;;;;4.23;2.13;;;;;;;;;;5017669;28;20254;-65
2023/08/21 02:09:36;;;;;;;6.93;2.30;;;;;;;;;;5035318;28;20191;-65
2023/08/21 02:12:02;;;;;;;8.97;2.50;;;;;;;;;;5035766;28;20668;-65
2023/08/21 02:14:28;;;;;;;4.60;2.50;;;;;;;;;;5035117;28;20176;-65
2023/08/21 02:16:54;;;;;;;5.20;2.20;;;;;;;;;;5035503;28;20179;-65
2023/08/21 02:19:20;;;;;;;4.90;2.37;;;;;;;;;;5035044;28;20202;-65
2023/08/21 02:21:46;;;;;;;7.40;2.50;;;;;;;;;;5017301;28;20538;-65
2023/08/21 02:24:12;;;;;;;8.43;2.50;;;;;;;;;;5035342;28;20198;-66
2023/08/21 02:26:38;;;;;;;6.13;2.33;;;;;;;;;;5017299;28;20179;-66
2023/08/21 02:29:04;;;;;;;11.53;2.70;;;;;;;;;;5017014;28;20205;-66
2023/08/21 02:31:30;;;;;;;7.60;2.30;;;;;;;;;;5017288;28;20266;-66
2023/08/21 02:33:56;;;;;;;5.83;2.70;;;;;;;;;;5034886;28;20211;-66
2023/08/21 02:36:22;;;;;;;3.57;2.13;;;;;;;;;;5034818;28;20692;-66
2023/08/21 02:38:50;;;;;;;4.00;2.37;;;;;;;;;;5016965;28;20303;-66
2023/08/21 02:41:17;;;;;;;6.27;2.53;;;;;;;;;;5015965;28;20190;-66
2023/08/21 02:43:43;;;;;;;8.67;2.40;;;;;;;;;;5016709;28;20217;-66
2023/08/21 02:46:09;;;;;;;6.10;2.20;;;;;;;;;;5034560;28;20641;-66
2023/08/21 02:48:35;;;;;;;6.97;2.40;;;;;;;;;;5016473;28;20729;-66
2023/08/21 02:51:02;;;;;;;4.80;2.10;;;;;;;;;;5034534;28;20633;-66
2023/08/21 02:53:28;;;;;;;8.13;2.50;;;;;;;;;;5016819;28;20572;-68
2023/08/21 02:55:54;;;;;;;6.90;2.27;;;;;;;;;;5034402;28;20270;-65
2023/08/21 02:58:20;;;;;;;7.47;2.33;;;;;;;;;;5034313;28;20248;-66
2023/08/21 03:00:46;;;;;;;6.73;2.70;;;;;;;;;;5016675;28;20637;-66
2023/08/21 03:03:12;;;;;;;8.97;2.43;;;;;;;;;;5016437;28;20751;-66
2023/08/21 03:05:38;;;;;;;4.67;2.43;;;;;;;;;;5016425;28;20175;-66
2023/08/21 03:08:04;;;;;;;5.17;2.27;;;;;;;;;;5016345;28;20229;-66
2023/08/21 03:10:33;;;;;;;6.10;2.77;;;;;;;;;;5034112;28;20586;-66
2023/08/21 03:12:59;;;;;;;4.13;2.40;;;;;;;;;;5034058;28;20175;-66
2023/08/21 03:15:25;;;;;;;6.10;2.47;;;;;;;;;;5016234;28;20233;-66
2023/08/21 03:17:51;;;;;;;9.87;2.50;;;;;;;;;;5033965;28;20206;-66
2023/08/21 03:20:17;;;;;;;6.13;3.07;;;;;;;;;;5034094;28;20660;-66
2023/08/21 03:22:43;;;;;;;8.53;2.77;;;;;;;;;;5016158;28;20341;-65
2023/08/21 03:25:10;;;;;;;5.13;2.17;;;;;;;;;;5016319;28;20578;-65
2023/08/21 03:27:39;;;;;;;5.60;2.40;;;;;;;;;;5016859;28;20210;-66
2023/08/21 03:30:07;;;;;;;10.70;3.00;;;;;;;;;;5034105;28;20194;-66
2023/08/21 03:32:33;;;;;;;6.97;2.63;;;;;;;;;;5034490;28;20634;-66
2023/08/21 03:34:59;;;;;;;8.40;2.70;;;;;;;;;;5034012;28;20179;-66
2023/08/21 03:37:25;;;;;;;7.37;3.13;;;;;;;;;;5016115;28;20190;-66
2023/08/21 03:39:51;;;;;;;5.67;2.67;;;;;;;;;;5015925;28;20380;-65
2023/08/21 03:42:17;;;;;;;7.90;2.80;;;;;;;;;;5015787;28;20232;-65
2023/08/21 03:44:43;;;;;;;3.30;2.20;;;;;;;;;;5033422;28;20179;-66
2023/08/21 03:47:09;;;;;;;7.37;2.70;;;;;;;;;;5033433;28;20202;-67
2023/08/21 03:49:37;;;;;;;6.47;2.53;;;;;;;;;;5033236;28;20234;-66
2023/08/21 03:52:03;;;;;;;9.53;3.03;;;;;;;;;;5033300;28;20677;-66
2023/08/21 03:54:29;;;;;;;5.70;2.47;;;;;;;;;;5033699;28;20592;-66
2023/08/21 03:56:55;;;;;;;7.97;2.67;;;;;;;;;;5015759;28;20183;-66
2023/08/21 03:59:22;;;;;;;8.47;2.93;;;;;;;;;;5033344;28;20237;-66
2023/08/21 04:01:48;;;;;;;10.50;3.13;;;;;;;;;;5033700;28;20202;-69
2023/08/21 04:04:14;;;;;;;10.70;3.13;;;;;;;;;;5015749;28;20241;-66
2023/08/21 04:06:40;;;;;;;7.23;2.53;;;;;;;;;;5016008;28;20622;-67
2023/08/21 04:09:06;;;;;;;9.60;2.90;;;;;;;;;;5016253;28;20239;-66
2023/08/21 04:11:33;;;;;;;11.50;3.20;;;;;;;;;;5052817;23;20231;-68
2023/08/21 04:13:59;;;;;;;10.60;3.07;;;;;;;;;;5044798;28;20182;-67
2023/08/21 04:16:25;;;;;;;7.83;3.00;;;;;;;;;;5074301;28;20190;-68
2023/08/21 04:18:51;;;;;;;8.30;3.23;;;;;;;;;;5059322;28;20183;-68
2023/08/21 04:21:17;;;;;;;7.40;3.03;;;;;;;;;;5076482;28;20194;-68
2023/08/21 04:23:45;;;;;;;9.30;2.77;;;;;;;;;;5076344;28;20252;-68
2023/08/21 04:26:11;;;;;;;7.53;2.43;;;;;;;;;;5075952;28;20273;-68
2023/08/21 04:28:37;;;;;;;8.00;2.77;;;;;;;;;;5075519;28;20182;-67
2023/08/21 04:31:07;;;;;;;5.63;2.90;;;;;;;;;;5060146;28;20233;-66
2023/08/21 04:33:33;;;;;;;7.23;3.03;;;;;;;;;;5053533;28;20228;-66
2023/08/21 04:35:59;;;;;;;8.70;3.00;;;;;;;;;;5053481;28;20179;-67
2023/08/21 04:38:25;;;;;;;4.27;2.73;;;;;;;;;;5053186;28;20641;-68
2023/08/21 04:40:51;;;;;;;7.77;3.10;;;;;;;;;;5053002;28;20272;-67
2023/08/21 04:43:17;;;;;;;4.93;2.30;;;;;;;;;;5053168;28;20683;-66
2023/08/21 04:45:50;;;;;;;10.10;3.30;;;;;;;;;;5053482;28;20214;-67
2023/08/21 04:48:16;;;;;;;6.27;2.50;;;;;;;;;;5053101;28;20227;-68
2023/08/21 04:50:42;;;;;;;10.63;3.03;;;;;;;;;;5052810;28;20251;-67
2023/08/21 04:53:08;;;;;;;6.97;2.63;;;;;;;;;;5052997;28;20261;-66
2023/08/21 04:55:34;;;;;;;8.57;3.00;;;;;;;;;;5052844;28;20587;-67
2023/08/21 04:58:00;;;;;;;7.27;3.20;;;;;;;;;;5035061;28;20178;-67
2023/08/21 05:00:26;;;;;;;8.40;2.80;;;;;;;;;;5052897;28;20202;-68
2023/08/21 05:02:52;;;;;;;9.50;3.27;;;;;;;;;;5034838;28;20241;-67
2023/08/21 05:05:18;;;;;;;8.60;3.00;;;;;;;;;;5036525;28;20252;-67
2023/08/21 05:07:44;;;;;;;6.00;2.83;;;;;;;;;;5038589;28;20185;-67
2023/08/21 05:10:10;;;;;;;8.03;3.30;;;;;;;;;;5038528;28;20648;-68
2023/08/21 05:12:36;;;;;;;8.47;3.37;;;;;;;;;;5056890;28;20220;-68
2023/08/21 05:15:02;;;;;;;10.57;3.40;;;;;;;;;;5056610;28;20178;-67
2023/08/21 05:17:28;;;;;;;13.17;3.83;;;;;;;;;;5056868;28;20182;-68
2023/08/21 05:19:54;;;;;;;15.93;4.20;;;;;;;;;;5056542;28;20178;-68
2023/08/21 05:22:20;;;;;;;8.43;3.30;;;;;;;;;;5056535;28;20178;-68
2023/08/21 05:24:46;;;;;;;6.73;3.30;;;;;;;;;;5056592;28;20552;-67
2023/08/21 05:27:12;;;;;;;9.73;3.90;;;;;;;;;;5056355;28;20211;-68
2023/08/21 05:29:38;;;;;;;10.60;4.20;;;;;;;;;;5056557;28;20175;-68
2023/08/21 05:32:04;;;;;;;12.13;5.53;;;;;;;;;;5038651;28;20198;-67
2023/08/21 05:34:30;;;;;;;15.10;5.03;;;;;;;;;;5057231;28;20190;-68
2023/08/21 05:36:56;;;;;;;8.87;4.27;;;;;;;;;;5056736;28;20174;-68
2023/08/21 05:39:22;;;;;;;17.33;4.07;;;;;;;;;;5038669;28;20244;-68
2023/08/21 05:41:48;;;;;;;8.20;4.23;;;;;;;;;;5038335;28;20635;-68
2023/08/21 05:44:14;;;;;;;12.47;4.57;;;;;;;;;;5056371;28;20191;-67
2023/08/21 05:46:39;;;;;;;12.23;3.43;;;;;;;;;;5056428;28;20174;-68
2023/08/21 05:49:05;;;;;;;7.47;3.27;;;;;;;;;;5056029;28;20255;-68
2023/08/21 05:51:31;;;;;;;7.97;3.70;;;;;;;;;;5055986;28;20194;-69
2023/08/21 05:53:57;;;;;;;9.90;3.40;;;;;;;;;;5056636;28;20179;-67
2023/08/21 05:56:23;;;;;;;8.93;3.10;;;;;;;;;;5056317;28;20187;-68
2023/08/21 05:58:49;;;;;;;11.30;3.70;;;;;;;;;;5038308;28;20183;-68
2023/08/21 06:01:15;;;;;;;13.90;4.53;;;;;;;;;;5055695;28;20770;-67
2023/08/21 06:03:42;;;;;;;13.47;5.00;;;;;;;;;;5055768;28;20198;-69
2023/08/21 06:06:08;;;;;;;11.83;3.90;;;;;;;;;;5055314;28;20177;-68
2023/08/21 06:08:34;;;;;;;8.53;3.93;;;;;;;;;;5055004;28;20178;-69
2023/08/21 06:11:00;;;;;;;12.13;3.90;;;;;;;;;;5054838;28;20210;-67
2023/08/21 06:13:26;;;;;;;11.43;4.23;;;;;;;;;;5055130;28;20265;-68
2023/08/21 06:15:53;;;;;;;11.97;3.83;;;;;;;;;;5054997;28;20636;-68
2023/08/21 06:18:20;;;;;;;17.00;4.33;;;;;;;;;;5055195;28;20264;-68
2023/08/21 06:20:45;;;;;;;10.27;4.33;;;;;;;;;;5036939;28;20206;-68
2023/08/21 06:23:12;;;;;;;12.47;4.57;;;;;;;;;;5058999;28;20645;-68
2023/08/21 06:25:38;;;;;;;13.13;3.73;;;;;;;;;;5060343;28;20186;-68
2023/08/21 06:28:04;;;;;;;11.07;4.10;;;;;;;;;;5041860;28;20183;-67
2023/08/21 06:30:30;;;;;;;14.43;3.60;;;;;;;;;;5054941;28;20221;-69
2023/08/21 06:32:56;;;;;;;10.70;3.53;;;;;;;;;;5036733;28;20637;-69
2023/08/21 06:35:22;;;;;;;15.70;3.60;;;;;;;;;;5036592;28;20186;-66
2023/08/21 06:37:48;;;;;;;9.23;3.80;;;;;;;;;;5054503;28;20178;-68
2023/08/21 06:40:14;;;;;;;8.77;3.73;;;;;;;;;;5036420;28;20305;-68
2023/08/21 06:42:40;;;;;;;10.53;3.37;;;;;;;;;;5054468;28;20206;-68
2023/08/21 06:45:06;;;;;;;10.87;3.40;;;;;;;;;;5054283;28;20182;-69
2023/08/21 06:47:33;;;;;;;9.87;3.93;;;;;;;;;;5054413;28;20284;-68
2023/08/21 06:50:00;;;;;;;10.10;4.17;;;;;;;;;;5054081;28;20190;-69
2023/08/21 06:52:26;;;;;;;8.97;3.67;;;;;;;;;;5054294;28;20254;-68
2023/08/21 06:54:52;;;;;;;9.97;3.70;;;;;;;;;;5054264;28;20257;-68
2023/08/21 06:57:18;;;;;;;10.33;4.10;;;;;;;;;;5054024;28;20185;-68
2023/08/21 06:59:44;;;;;;;7.90;3.93;;;;;;;;;;5036100;28;20232;-68
2023/08/21 07:02:10;;;;;;;12.00;4.20;;;;;;;;;;5053885;28;20195;-68
2023/08/21 07:04:36;;;;;;;11.40;4.45;;;;;;;;;;5053196;28;20405;-68
2023/08/21 07:07:02;;;;;;;11.65;4.30;;;;;;;;;;5034741;28;20528;-68
2023/08/21 07:09:28;;;;;;;9.88;4.20;;;;;;;;;;5034704;28;20443;-68
2023/08/21 07:11:55;;;;;;;9.43;4.35;;;;;;;;;;5052457;28;20405;-68
2023/08/21 07:14:21;;;;;;;11.00;3.70;;;;;;;;;;5054304;28;20174;-69
2023/08/21 07:16:47;;;;;;;11.67;4.27;;;;;;;;;;5053972;28;20189;-69
2023/08/21 07:19:13;;;;;;;11.97;4.50;;;;;;;;;;5052758;28;20388;-69
2023/08/21 07:21:39;;;;;;;12.50;4.47;;;;;;;;;;5052406;28;20728;-69
2023/08/21 07:24:05;;;;;;;10.70;3.40;;;;;;;;;;5035618;28;20305;-68
2023/08/21 07:26:31;;;;;;;9.20;3.80;;;;;;;;;;5052280;28;20877;-68
2023/08/21 07:28:57;;;;;;;8.35;3.47;;;;;;;;;;5051946;28;20905;-68
2023/08/21 07:31:23;;;;;;;10.07;3.55;;;;;;;;;;5034141;28;20859;-68
2023/08/21 07:33:49;;;;;;;9.83;3.70;;;;;;;;;;5052659;28;20715;-68
2023/08/21 07:36:18;;;;;;;8.75;3.60;;;;;;;;;;5052351;28;20735;-68
2023/08/21 07:38:44;;;;;;;12.15;3.60;;;;;;;;;;5052032;28;20435;-68
2023/08/21 07:41:11;;;;;;;9.18;3.45;;;;;;;;;;5052191;28;20385;-68
2023/08/21 07:43:38;;;;;;;8.68;3.28;;;;;;;;;;5033995;28;20401;-68
2023/08/21 07:46:04;;;;;;;8.35;2.88;;;;;;;;;;5052066;28;20862;-68
2023/08/21 07:48:30;;;;;;;6.43;2.90;;;;;;;;;;5034043;28;20389;-68
2023/08/21 07:50:56;;;;;;;8.82;2.75;;;;;;;;;;5051786;28;20374;-68
2023/08/21 07:53:23;;;;;;;7.55;2.97;;;;;;;;;;5033960;28;20382;-68
2023/08/21 07:55:49;;;;;;;6.47;2.95;;;;;;;;;;5033873;28;20389;-68
2023/08/21 07:58:15;;;;;;;8.52;2.75;;;;;;;;;;5052079;28;20373;-68
2023/08/21 08:00:42;;;;;;;7.97;2.80;;;;;;;;;;5051808;28;20439;-68
2023/08/21 08:03:08;;;;;;;11.45;3.05;;;;;;;;;;5051744;28;20429;-67
2023/08/21 08:05:34;;;;;;;6.82;2.90;;;;;;;;;;5051752;28;20377;-67
2023/08/21 08:08:01;;;;;;;5.13;2.80;;;;;;;;;;5051877;28;20531;-68
2023/08/21 08:10:27;;;;;;;9.55;3.10;;;;;;;;;;5033636;28;20404;-68
2023/08/21 08:12:54;;;;;;;8.13;2.60;;;;;;;;;;5034002;28;20381;-67
2023/08/21 08:15:20;;;;;;;8.15;2.72;;;;;;;;;;5051812;28;20385;-68
2023/08/21 08:17:46;;;;;;;10.63;3.33;;;;;;;;;;5051558;28;20758;-68
2023/08/21 08:20:12;;;;;;;6.28;2.53;;;;;;;;;;5033552;28;20906;-68
2023/08/21 08:22:38;;;;;;;7.37;2.77;;;;;;;;;;5051839;28;20525;-68
2023/08/21 08:25:05;;;;;;;6.60;2.80;;;;;;;;;;5034310;28;20374;-68
2023/08/21 08:27:32;;;;;;;6.93;2.60;;;;;;;;;;5052054;28;20863;-68
2023/08/21 08:29:58;;;;;;;6.30;2.40;;;;;;;;;;5034346;28;20389;-69
2023/08/21 08:32:24;;;;;;;6.25;2.38;;;;;;;;;;5052475;28;20389;-68
2023/08/21 08:34:50;;;;;;;6.40;2.60;;;;;;;;;;5052612;28;20729;-68
2023/08/21 08:37:16;;;;;;;4.80;2.55;;;;;;;;;;5052464;28;20412;-68
2023/08/21 08:39:41;;;;;;;6.83;2.80;;;;;;;;;;5053469;28;20544;-68
2023/08/21 08:42:08;;;;;;;8.60;2.27;;;;;;;;;;5058152;28;20190;-68
2023/08/21 08:44:38;;;;;;;5.17;2.50;;;;;;;;;;5057819;28;20198;-68
2023/08/21 08:47:04;;;;;;;7.33;2.33;;;;;;;;;;5058282;28;20179;-68
2023/08/21 08:49:30;;;;;;;6.33;2.50;;;;;;;;;;5058132;28;20621;-67
2023/08/21 08:51:58;;;;;;;4.80;2.00;;;;;;;;;;5058142;28;20198;-68
2023/08/21 08:54:27;;;;;;;4.40;2.43;;;;;;;;;;5038928;28;20178;-68
2023/08/21 08:56:53;;;;;;;7.40;2.63;;;;;;;;;;5056293;28;20720;-68
2023/08/21 08:59:20;;;;;;;6.97;2.43;;;;;;;;;;5056321;28;20192;-68
2023/08/21 09:01:46;;;;;;;4.77;2.50;;;;;;;;;;5056109;28;20195;-68
2023/08/21 09:04:12;;;;;;;7.83;2.63;;;;;;;;;;5054951;28;20409;-68
2023/08/21 09:06:38;;;;;;;6.40;2.80;;;;;;;;;;5055514;28;20460;-69
2023/08/21 09:09:04;;;;;;;6.32;2.33;;;;;;;;;;5055026;28;20475;-68
2023/08/21 09:11:30;;;;;;;6.05;2.53;;;;;;;;;;5054898;28;20385;-69
2023/08/21 09:13:56;;;;;;;7.47;2.45;;;;;;;;;;5055389;28;20385;-68
2023/08/21 09:16:24;;;;;;;4.65;2.08;;;;;;;;;;5055077;28;20468;-68
2023/08/21 09:18:51;;;;;;;6.60;2.53;;;;;;;;;;5054776;28;20390;-68
2023/08/21 09:21:17;;;;;;;5.95;2.45;;;;;;;;;;5054731;28;20847;-69
2023/08/21 09:23:44;;;;;;;7.72;2.67;;;;;;;;;;5054755;28;20405;-68
2023/08/21 09:26:10;;;;;;;6.35;2.67;;;;;;;;;;5054664;28;20382;-68
2023/08/21 09:28:36;;;;;;;4.47;2.30;;;;;;;;;;5054911;28;20446;-68
2023/08/21 09:31:02;;;;;;;9.00;2.90;;;;;;;;;;5036649;28;20405;-68
2023/08/21 09:33:28;;;;;;;5.40;2.25;;;;;;;;;;5054556;28;20455;-68
2023/08/21 09:35:55;;;;;;;6.88;2.60;;;;;;;;;;5036601;28;20883;-68
2023/08/21 09:38:21;;;;;;;7.00;2.53;;;;;;;;;;5054454;28;20890;-68
2023/08/21 09:40:51;;;;;;;10.40;2.83;;;;;;;;;;5054424;28;20386;-68
2023/08/21 09:43:17;;;;;;;7.68;3.05;;;;;;;;;;5036521;28;20489;-68
2023/08/21 09:45:46;;;;;;;6.43;2.67;;;;;;;;;;5054391;28;20460;-69
2023/08/21 09:48:13;;;;;;;9.27;2.97;;;;;;;;;;5054226;28;20741;-68
2023/08/21 09:50:40;;;;;;;10.27;2.78;;;;;;;;;;5053627;28;20424;-69
2023/08/21 09:53:09;;;;;;;9.23;2.90;;;;;;;;;;5054309;28;20416;-68
2023/08/21 09:55:35;;;;;;;6.50;2.80;;;;;;;;;;5037416;28;20186;-69
2023/08/21 09:58:02;;;;;;;6.27;2.57;;;;;;;;;;5055225;28;20170;-68
2023/08/21 10:00:37;;;;;;;9.07;2.50;;;;;;;;;;5037194;28;20198;-69
2023/08/21 10:03:04;;;;;;;8.10;2.43;;;;;;;;;;5055023;28;20293;-68
2023/08/21 10:05:34;;;;;;;10.70;2.97;;;;;;;;;;5037147;28;20201;-68
2023/08/21 10:08:04;;;;;;;9.93;2.90;;;;;;;;;;5054977;28;20200;-67
2023/08/21 10:10:30;;;;;;;10.40;2.57;;;;;;;;;;5054859;28;20218;-69
2023/08/21 10:12:56;;;;;;;7.27;2.93;;;;;;;;;;5055180;28;20167;-67
2023/08/21 10:15:23;;;;;;;5.93;2.40;;;;;;;;;;5054900;28;20240;-68
2023/08/21 10:17:48;;;;;;;4.60;2.33;;;;;;;;;;5037253;28;20178;-67
2023/08/21 10:20:22;;;;;;;8.70;2.43;;;;;;;;;;5054689;28;20597;-68
2023/08/21 10:22:54;;;;;;;7.10;2.70;;;;;;;;;;5072427;22;20346;-66
2023/08/21 10:25:25;;;;;;;6.73;2.60;;;;;;;;;;5017408;28;20184;-65
2023/08/21 10:27:59;;;;;;;8.07;2.50;;;;;;;;;;5034307;28;20845;-66
2023/08/21 10:30:26;;;;;;;8.07;2.60;;;;;;;;;;5033817;28;20873;-66
2023/08/21 10:32:53;;;;;;;7.87;2.30;;;;;;;;;;5015833;28;20816;-66
2023/08/21 10:35:20;;;;;;;5.88;2.63;;;;;;;;;;5033823;28;20921;-67
2023/08/21 10:38:04;;;;;;;6.05;2.35;;;;;;;;;;5033816;28;20383;-67
2023/08/21 10:40:30;;;;;;;5.60;2.40;;;;;;;;;;5015734;28;20386;-67
2023/08/21 10:42:56;;;;;;;5.75;2.40;;;;;;;;;;5033486;28;20398;-66
2023/08/21 10:45:22;;;;;;;7.80;2.55;;;;;;;;;;5015763;28;20920;-66
2023/08/21 10:47:50;;;;;;;6.13;2.45;;;;;;;;;;5033473;28;20784;-66
2023/08/21 10:50:16;;;;;;;7.55;2.75;;;;;;;;;;5017970;28;20418;-67
2023/08/21 10:52:45;;;;;;;9.02;3.60;;;;;;;;;;5015513;28;20383;-66
2023/08/21 10:55:11;;;;;;;6.50;2.42;;;;;;;;;;5033450;28;20463;-67
2023/08/21 10:57:38;;;;;;;6.05;2.30;;;;;;;;;;5033163;28;20505;-66
2023/08/21 11:00:04;;;;;;;7.97;2.70;;;;;;;;;;5015381;28;20939;-67
2023/08/21 11:02:31;;;;;;;5.38;2.13;;;;;;;;;;5032227;28;20845;-66
2023/08/21 11:04:57;;;;;;;5.57;2.20;;;;;;;;;;5033120;28;20873;-66
2023/08/21 11:07:23;;;;;;;7.70;2.53;;;;;;;;;;5015501;28;20893;-66
2023/08/21 11:09:49;;;;;;;9.85;3.42;;;;;;;;;;5033089;28;20375;-67
2023/08/21 11:12:17;;;;;;;4.73;2.13;;;;;;;;;;5034320;28;20191;-67
2023/08/21 11:14:43;;;;;;;6.27;2.10;;;;;;;;;;5016650;28;20404;-67
2023/08/21 11:17:09;;;;;;;3.73;2.20;;;;;;;;;;5034281;28;20182;-68
2023/08/21 11:19:36;;;;;;;3.97;2.17;;;;;;;;;;5034116;28;20179;-67
2023/08/21 11:22:08;;;;;;;7.00;2.30;;;;;;;;;;5033955;28;20179;-67
2023/08/21 11:24:47;;;;;;;3.83;2.20;;;;;;;;;;5034213;28;20253;-68
2023/08/21 11:27:15;;;;;;;4.60;2.50;;;;;;;;;;5033983;28;20171;-67
2023/08/21 11:29:45;;;;;;;6.10;2.53;;;;;;;;;;5033800;28;20205;-66
2023/08/21 11:32:15;;;;;;;9.10;2.27;;;;;;;;;;5033927;28;20183;-66
2023/08/21 11:34:42;;;;;;;8.63;2.80;;;;;;;;;;5033764;28;20598;-66
2023/08/21 11:37:08;;;;;;;8.00;2.70;;;;;;;;;;5033553;28;20175;-66
2023/08/21 11:39:41;;;;;;;5.20;2.47;;;;;;;;;;5033712;28;20552;-66
2023/08/21 11:42:11;;;;;;;8.53;2.40;;;;;;;;;;5033983;28;20206;-67
2023/08/21 11:44:44;;;;;;;5.07;2.50;;;;;;;;;;5040719;28;20229;-67
2023/08/21 11:47:11;;;;;;;10.23;2.37;;;;;;;;;;5033925;28;20199;-66
2023/08/21 11:49:37;;;;;;;7.60;2.63;;;;;;;;;;5033609;28;20175;-66
2023/08/21 11:52:04;;;;;;;10.43;2.93;;;;;;;;;;5033334;28;20587;-67
2023/08/21 11:54:36;;;;;;;7.73;3.10;;;;;;;;;;5015701;28;20187;-66
2023/08/21 11:57:06;;;;;;;6.30;2.70;;;;;;;;;;5015644;28;20179;-67
2023/08/21 11:59:32;;;;;;;7.73;2.17;;;;;;;;;;5015736;28;20183;-67
2023/08/21 12:01:58;;;;;;;9.30;2.37;;;;;;;;;;5033103;28;20672;-67
2023/08/21 12:04:25;;;;;;;6.07;2.20;;;;;;;;;;5015860;28;20210;-67
2023/08/21 12:06:51;;;;;;;4.93;2.10;;;;;;;;;;5033615;28;20593;-66
2023/08/21 12:09:18;;;;;;;8.87;2.30;;;;;;;;;;5033820;28;20179;-67
2023/08/21 12:11:45;;;;;;;6.80;2.30;;;;;;;;;;5015370;28;20604;-66
2023/08/21 12:14:11;;;;;;;5.70;2.27;;;;;;;;;;5032746;28;20558;-67
2023/08/21 12:16:37;;;;;;;8.73;2.60;;;;;;;;;;5034026;28;20410;-66
2023/08/21 12:19:03;;;;;;;9.30;2.47;;;;;;;;;;5048755;28;20190;-67
2023/08/21 12:21:29;;;;;;;5.70;2.47;;;;;;;;;;5056489;28;20183;-66
2023/08/21 12:23:55;;;;;;;6.30;2.57;;;;;;;;;;5052632;28;20272;-66
2023/08/21 12:26:21;;;;;;;8.30;2.27;;;;;;;;;;5055453;28;20180;-67
2023/08/21 12:28:48;;;;;;;5.47;2.30;;;;;;;;;;5054380;28;20186;-66
2023/08/21 12:31:14;;;;;;;6.27;2.40;;;;;;;;;;5053483;28;20182;-67
2023/08/21 12:33:40;;;;;;;5.67;2.43;;;;;;;;;;5032804;28;20300;-66
2023/08/21 12:36:06;;;;;;;12.17;2.70;;;;;;;;;;5048274;28;20262;-67
2023/08/21 12:38:32;;;;;;;6.17;2.43;;;;;;;;;;5045544;28;20201;-67
2023/08/21 12:40:58;;;;;;;6.53;2.50;;;;;;;;;;5046942;28;20650;-66
2023/08/21 12:43:25;;;;;;;11.20;2.60;;;;;;;;;;5042151;28;20257;-66
2023/08/21 12:45:51;;;;;;;4.27;2.07;;;;;;;;;;5042181;28;20602;-66
2023/08/21 12:48:17;;;;;;;9.97;2.60;;;;;;;;;;5040546;28;20175;-66
2023/08/21 12:50:43;;;;;;;6.20;2.50;;;;;;;;;;5039045;28;20321;-67
2023/08/21 12:53:09;;;;;;;7.60;2.47;;;;;;;;;;5019102;28;20215;-66
2023/08/21 12:55:35;;;;;;;6.87;3.13;;;;;;;;;;5034394;28;20179;-67
2023/08/21 12:58:02;;;;;;;6.73;2.70;;;;;;;;;;5033495;28;20171;-67
2023/08/21 13:00:28;;;;;;;6.87;3.00;;;;;;;;;;5033587;28;20187;-68
2023/08/21 13:02:54;;;;;;;5.73;2.53;;;;;;;;;;5015188;28;20274;-66
2023/08/21 13:05:20;;;;;;;7.33;2.37;;;;;;;;;;5033633;28;20265;-67
2023/08/21 13:07:46;;;;;;;7.83;2.63;;;;;;;;;;5033341;28;20172;-67
2023/08/21 13:10:12;;;;;;;8.53;3.03;;;;;;;;;;5032966;28;20233;-66
2023/08/21 13:12:38;;;;;;;4.90;2.60;;;;;;;;;;5033392;28;20199;-66
2023/08/21 13:15:06;;;;;;;7.47;2.50;;;;;;;;;;5033149;28;20274;-66
2023/08/21 13:17:32;;;;;;;8.90;2.90;;;;;;;;;;5033257;28;20171;-67
2023/08/21 13:19:58;;;;;;;8.90;2.60;;;;;;;;;;5033441;28;20604;-67
2023/08/21 13:22:24;;;;;;;6.23;2.60;;;;;;;;;;5032544;28;20596;-67
2023/08/21 13:24:50;;;;;;;7.57;3.00;;;;;;;;;;5034698;28;20482;-69
2023/08/21 13:27:16;;;;;;;4.33;2.63;;;;;;;;;;5020752;28;20258;-68
2023/08/21 13:29:43;;;;;;;5.00;2.80;;;;;;;;;;5038986;28;20182;-67
2023/08/21 13:32:09;;;;;;;7.60;3.10;;;;;;;;;;5021502;28;20268;-68
2023/08/21 13:34:36;;;;;;;12.37;2.80;;;;;;;;;;5021281;28;20675;-68
2023/08/21 13:37:02;;;;;;;7.53;2.90;;;;;;;;;;5021892;28;20453;-68
2023/08/21 13:39:28;;;;;;;6.22;2.88;;;;;;;;;;5038642;28;20447;-68
2023/08/21 13:41:54;;;;;;;9.15;3.15;;;;;;;;;;5036626;28;20441;-67
2023/08/21 13:44:20;;;;;;;8.90;3.03;;;;;;;;;;5035184;28;20912;-67
2023/08/21 13:46:46;;;;;;;7.30;3.10;;;;;;;;;;5035406;28;20742;-67
2023/08/21 13:49:12;;;;;;;9.15;3.45;;;;;;;;;;5035105;28;20812;-67
2023/08/21 13:51:38;;;;;;;7.10;3.20;;;;;;;;;;5035003;28;20909;-68
2023/08/21 13:54:04;;;;;;;6.50;3.08;;;;;;;;;;5034854;28;20767;-67
2023/08/21 13:56:30;;;;;;;6.95;3.05;;;;;;;;;;5034864;28;20465;-68
2023/08/21 13:58:56;;;;;;;6.40;2.83;;;;;;;;;;5035149;28;20733;-66
2023/08/21 14:01:22;;;;;;;8.68;3.30;;;;;;;;;;5034564;28;20929;-66
2023/08/21 14:03:47;;;;;;;7.50;2.80;;;;;;;;;;5034394;28;20415;-65
2023/08/21 14:06:13;;;;;;;9.68;3.30;;;;;;;;;;5016824;28;20374;-65
2023/08/21 14:08:39;;;;;;;8.93;3.50;;;;;;;;;;5034251;28;20407;-66
2023/08/21 14:11:05;;;;;;;6.75;2.75;;;;;;;;;;5034350;28;20407;-65
2023/08/21 14:13:31;;;;;;;6.95;3.03;;;;;;;;;;5034827;28;20474;-66
2023/08/21 14:15:57;;;;;;;9.23;3.10;;;;;;;;;;5034223;28;20387;-65
2023/08/21 14:18:23;;;;;;;7.00;3.03;;;;;;;;;;5034404;28;20442;-66
2023/08/21 14:20:49;;;;;;;8.80;3.57;;;;;;;;;;5034218;28;20383;-66
2023/08/21 14:23:15;;;;;;;6.93;3.40;;;;;;;;;;5033831;28;20490;-67
2023/08/21 14:25:41;;;;;;;7.15;3.42;;;;;;;;;;5034213;28;20402;-67
2023/08/21 14:28:07;;;;;;;7.07;3.80;;;;;;;;;;5033866;28;20865;-67
2023/08/21 14:30:33;;;;;;;8.88;3.50;;;;;;;;;;5034242;28;20817;-66
2023/08/21 14:32:59;;;;;;;7.53;3.38;;;;;;;;;;5034426;28;20742;-66
2023/08/21 14:35:25;;;;;;;8.52;3.40;;;;;;;;;;5039273;28;20832;-66
2023/08/21 14:37:51;;;;;;;8.07;3.63;;;;;;;;;;5033738;28;20383;-66